Time;durP1;ratioP1;P1;durP2;ratioP2;P2;SDS_P1;SDS_P2;PMS_P1;PMS_P2;Temp;Humidity;BMP_temperature;BMP_pressure;BME280_temperature;BME280_humidity;BME280_pressure;Samples;Min_cycle;Max_cycle;Signal;HPM_P1;HPM_P2
2023/03/08 00:00:51;;;;;;;6.90;6.30;;;;;;;0.68;100.00;98909.06;5058495;28;20769;-77
2023/03/08 00:03:17;;;;;;;7.90;7.30;;;;;;;0.75;100.00;98907.31;5062471;28;20271;-75
2023/03/08 00:05:43;;;;;;;6.73;6.13;;;;;;;0.73;100.00;98904.78;5072925;28;20209;-76
2023/03/08 00:08:10;;;;;;;6.67;6.07;;;;;;;0.58;100.00;98922.81;5072902;28;20226;-77
2023/03/08 00:10:38;;;;;;;7.80;7.20;;;;;;;0.46;100.00;98902.31;5073163;28;20225;-77
2023/03/08 00:13:04;;;;;;;7.37;6.77;;;;;;;0.54;100.00;98893.72;5072459;28;20201;-77
2023/03/08 00:15:30;;;;;;;6.97;6.37;;;;;;;0.60;100.00;98874.88;5073373;28;20624;-76
2023/03/08 00:17:57;;;;;;;6.93;6.30;;;;;;;0.58;100.00;98874.03;5073445;28;20670;-76
2023/03/08 00:20:23;;;;;;;6.03;5.53;;;;;;;0.55;100.00;98892.00;5073414;28;20225;-76
2023/03/08 00:22:50;;;;;;;6.87;6.27;;;;;;;0.39;100.00;98904.03;5072986;28;20210;-77
2023/03/08 00:25:16;;;;;;;6.40;6.00;;;;;;;0.56;100.00;98904.81;5073473;28;20262;-77
2023/03/08 00:27:44;;;;;;;7.77;7.10;;;;;;;0.56;100.00;98909.13;5072956;28;20565;-77
2023/03/08 00:30:12;;;;;;;9.07;6.00;;;;;;;0.66;100.00;98903.09;5073244;28;20226;-77
2023/03/08 00:32:38;;;;;;;6.27;5.77;;;;;;;0.49;100.00;98909.97;5073159;28;20216;-77
2023/03/08 00:35:05;;;;;;;6.00;5.50;;;;;;;0.58;100.00;98921.06;5073312;28;20385;-77
2023/03/08 00:37:32;;;;;;;5.97;5.47;;;;;;;0.63;100.00;98921.06;5073413;28;20204;-77
2023/03/08 00:39:58;;;;;;;5.93;5.53;;;;;;;0.74;100.00;98923.59;5072851;28;20713;-77
2023/03/08 00:42:25;;;;;;;6.37;5.57;;;;;;;0.73;100.00;98933.03;5073684;28;20209;-77
2023/03/08 00:44:53;;;;;;;7.70;5.73;;;;;;;0.77;100.00;98937.28;5073386;28;20208;-77
2023/03/08 00:47:19;;;;;;;5.53;5.10;;;;;;;0.82;100.00;98950.09;5073745;28;20221;-77
2023/03/08 00:49:46;;;;;;;6.00;5.50;;;;;;;0.68;100.00;98968.13;5073664;28;20230;-77
2023/03/08 00:52:12;;;;;;;5.77;5.20;;;;;;;0.66;100.00;98974.13;5073652;28;20271;-77
2023/03/08 00:54:38;;;;;;;6.33;5.30;;;;;;;0.70;100.00;98975.84;5077228;28;20204;-77
2023/03/08 00:57:05;;;;;;;5.77;5.33;;;;;;;0.74;100.00;98972.41;5078117;28;20209;-77
2023/03/08 00:59:31;;;;;;;5.83;5.33;;;;;;;0.81;100.00;98974.06;5078680;28;20220;-77
2023/03/08 01:02:00;;;;;;;5.90;4.90;;;;;;;0.77;100.00;98990.34;5078361;28;20209;-77
2023/03/08 01:04:27;;;;;;;5.57;5.17;;;;;;;0.80;100.00;98998.06;5079217;28;20299;-77
2023/03/08 01:06:53;;;;;;;5.47;4.97;;;;;;;0.78;99.31;99015.19;5079140;28;20208;-77
2023/03/08 01:09:20;;;;;;;5.73;5.17;;;;;;;0.74;98.85;99018.63;5080328;28;20278;-78
2023/03/08 01:11:46;;;;;;;5.23;4.83;;;;;;;0.72;99.13;99023.75;5081054;28;20551;-78
2023/03/08 01:14:12;;;;;;;7.17;4.93;;;;;;;0.48;98.64;99042.63;5080231;28;20197;-78
2023/03/08 01:16:39;;;;;;;4.50;4.20;;;;;;;0.42;98.74;99036.63;5081405;28;20236;-78
2023/03/08 01:19:06;;;;;;;5.43;4.43;;;;;;;0.51;99.72;99026.34;5082232;28;20221;-78
2023/03/08 01:21:33;;;;;;;4.57;4.17;;;;;;;0.62;100.00;99016.09;5081041;28;20198;-78
2023/03/08 01:23:59;;;;;;;5.60;5.13;;;;;;;0.72;99.92;99012.63;5081675;28;20203;-78
2023/03/08 01:26:27;;;;;;;4.90;4.37;;;;;;;0.80;99.93;99003.19;5080765;28;20209;-77
2023/03/08 01:28:53;;;;;;;5.23;4.83;;;;;;;0.84;100.00;99001.47;5082311;28;20251;-77
2023/03/08 01:31:21;;;;;;;5.20;4.70;;;;;;;0.83;100.00;99004.88;5080987;28;20246;-77
2023/03/08 01:33:48;;;;;;;5.10;4.63;;;;;;;0.46;99.36;99007.56;5070429;28;20618;-78
2023/03/08 01:36:18;;;;;;;4.67;4.30;;;;;;;0.41;99.11;99015.25;5078282;28;20197;-77
2023/03/08 01:38:46;;;;;;;4.67;4.30;;;;;;;0.49;99.46;99013.50;5080790;28;20205;-77
2023/03/08 01:41:15;;;;;;;5.20;4.50;;;;;;;0.55;98.55;99007.50;5079877;28;20717;-77
2023/03/08 01:43:42;;;;;;;5.00;4.60;;;;;;;0.47;98.43;99016.94;5079589;28;20201;-77
2023/03/08 01:46:18;;;;;;;5.20;4.60;;;;;;;0.62;99.38;98996.38;5080039;28;20207;-77
2023/03/08 01:48:50;;;;;;;4.87;4.47;;;;;;;0.71;100.00;98978.38;5077747;28;20217;-77
2023/03/08 01:51:24;;;;;;;6.50;4.80;;;;;;;0.75;100.00;98974.09;5076940;28;20200;-77
2023/03/08 01:53:51;;;;;;;5.67;5.17;;;;;;;0.80;100.00;98967.25;5079299;28;20206;-77
2023/03/08 01:56:19;;;;;;;6.13;4.93;;;;;;;0.87;100.00;98965.50;5080080;28;20205;-77
2023/03/08 01:58:48;;;;;;;5.30;4.77;;;;;;;0.88;99.81;98970.63;5079405;28;20258;-78
2023/03/08 02:01:15;;;;;;;4.67;4.30;;;;;;;0.91;100.00;98964.63;5079450;28;20201;-77
2023/03/08 02:03:41;;;;;;;4.67;4.27;;;;;;;0.95;100.00;98961.16;5079712;28;20205;-77
2023/03/08 02:06:08;;;;;;;5.20;4.70;;;;;;;1.02;100.00;98952.59;5079597;28;20209;-77
2023/03/08 02:08:36;;;;;;;4.97;4.50;;;;;;;1.00;99.87;98962.03;5079253;28;20287;-77
2023/03/08 02:11:03;;;;;;;4.87;4.47;;;;;;;1.03;99.66;98956.88;5079869;28;20205;-76
2023/03/08 02:13:29;;;;;;;5.90;4.83;;;;;;;1.06;99.07;98961.16;5079888;28;20201;-77
2023/03/08 02:15:58;;;;;;;5.23;4.77;;;;;;;0.86;97.63;98982.63;5079331;28;20211;-76
2023/03/08 02:18:24;;;;;;;5.37;4.87;;;;;;;0.85;99.18;98988.59;5079378;28;20209;-77
2023/03/08 02:20:51;;;;;;;5.10;4.20;;;;;;;0.94;99.66;98988.59;5079089;28;20225;-77
2023/03/08 02:23:20;;;;;;;4.90;4.50;;;;;;;0.95;99.12;98981.72;5079310;28;20204;-77
2023/03/08 02:25:52;;;;;;;5.03;4.53;;;;;;;0.97;100.00;98965.47;5078956;28;20215;-77
2023/03/08 02:28:20;;;;;;;5.30;4.77;;;;;;;1.03;99.82;98967.16;5089877;28;20213;-77
2023/03/08 02:30:47;;;;;;;5.03;4.63;;;;;;;1.03;99.28;98961.16;5099268;28;20250;-77
2023/03/08 02:33:13;;;;;;;5.30;4.77;;;;;;;1.05;99.26;98964.56;5099495;28;20230;-77
2023/03/08 02:35:41;;;;;;;5.90;4.90;;;;;;;1.05;100.00;98965.44;5099419;28;20636;-77
2023/03/08 02:38:08;;;;;;;5.70;5.20;;;;;;;1.02;99.26;98972.28;5099579;28;20215;-78
2023/03/08 02:40:36;;;;;;;5.53;5.13;;;;;;;1.01;99.05;98986.00;5099060;28;20224;-77
2023/03/08 02:43:03;;;;;;;8.13;5.03;;;;;;;1.01;99.25;98986.84;5099050;28;20250;-77
2023/03/08 02:45:29;;;;;;;7.77;5.67;;;;;;;1.06;99.31;98977.41;5098650;28;20729;-77
2023/03/08 02:47:56;;;;;;;6.00;5.40;;;;;;;0.93;98.01;98986.88;5099018;28;20205;-77
2023/03/08 02:50:22;;;;;;;6.47;5.87;;;;;;;1.02;98.79;98982.56;5099060;28;20230;-77
2023/03/08 02:52:48;;;;;;;7.37;5.93;;;;;;;0.97;98.48;98983.44;5099609;28;20254;-77
2023/03/08 02:55:15;;;;;;;6.53;5.93;;;;;;;1.09;99.02;98977.41;5099044;28;20647;-77
2023/03/08 02:57:43;;;;;;;6.07;5.63;;;;;;;1.11;97.90;98980.81;5082602;28;20218;-77
2023/03/08 03:00:10;;;;;;;7.27;6.67;;;;;;;1.06;97.06;98991.97;5078558;28;20231;-78
2023/03/08 03:02:37;;;;;;;6.30;5.80;;;;;;;1.13;97.46;98996.22;5078645;28;20693;-77
2023/03/08 03:05:04;;;;;;;7.00;6.30;;;;;;;1.14;97.45;99000.50;5078651;28;20201;-77
2023/03/08 03:07:31;;;;;;;7.07;6.40;;;;;;;1.17;97.00;99003.91;5078476;28;20201;-77
2023/03/08 03:09:57;;;;;;;7.60;6.67;;;;;;;1.09;96.35;99009.94;5078384;28;20229;-78
2023/03/08 03:12:24;;;;;;;8.17;6.83;;;;;;;1.08;97.14;99013.38;5078741;28;20209;-77
2023/03/08 03:14:51;;;;;;;5.83;5.37;;;;;;;0.99;97.19;99016.81;5078117;28;20270;-77
2023/03/08 03:17:18;;;;;;;5.93;5.33;;;;;;;0.94;97.42;99021.13;5077545;28;20263;-77
2023/03/08 03:19:44;;;;;;;7.87;7.07;;;;;;;0.54;96.78;99026.38;5077712;28;20217;-77
2023/03/08 03:22:11;;;;;;;8.63;6.63;;;;;;;0.65;97.94;99011.78;5078633;28;20208;-77
2023/03/08 03:24:37;;;;;;;8.57;6.90;;;;;;;0.64;97.39;99004.94;5077969;28;20231;-77
2023/03/08 03:27:04;;;;;;;6.47;5.57;;;;;;;0.72;97.94;99002.38;5077898;28;20655;-77
2023/03/08 03:29:30;;;;;;;6.97;6.33;;;;;;;0.60;97.63;99003.25;5077661;28;20234;-77
2023/03/08 03:31:58;;;;;;;6.80;6.20;;;;;;;0.55;97.99;98997.25;5077265;28;20213;-77
2023/03/08 03:34:25;;;;;;;12.17;7.37;;;;;;;0.50;98.35;98998.97;5078401;28;20205;-77
2023/03/08 03:36:51;;;;;;;7.93;7.13;;;;;;;0.59;98.40;98987.00;5078149;28;20209;-77
2023/03/08 03:39:18;;;;;;;6.90;6.30;;;;;;;0.57;98.30;98988.69;5077732;28;20508;-77
2023/03/08 03:41:44;;;;;;;8.20;7.40;;;;;;;0.48;98.09;98985.31;5078807;28;20260;-77
2023/03/08 03:44:10;;;;;;;8.20;7.37;;;;;;;0.45;98.39;98973.31;5078396;28;20217;-76
2023/03/08 03:46:37;;;;;;;9.13;8.23;;;;;;;0.36;98.87;98970.78;5077889;28;20210;-77
2023/03/08 03:49:06;;;;;;;8.17;7.37;;;;;;;0.39;98.47;98968.19;5078098;28;20253;-77
2023/03/08 03:51:32;;;;;;;8.13;7.33;;;;;;;0.51;99.72;98962.16;5077778;28;20212;-77
2023/03/08 03:53:59;;;;;;;8.50;7.63;;;;;;;0.57;99.79;98949.31;5077889;28;20632;-77
2023/03/08 03:56:27;;;;;;;10.07;8.43;;;;;;;0.44;98.81;98950.19;5077215;28;20203;-77
2023/03/08 03:58:54;;;;;;;8.97;8.07;;;;;;;0.47;99.03;98957.91;5074271;28;20280;-76
2023/03/08 04:01:23;;;;;;;8.33;7.63;;;;;;;0.36;98.29;98961.34;5074254;28;20214;-77
2023/03/08 04:03:51;;;;;;;7.43;6.73;;;;;;;0.46;98.35;98966.47;5073949;28;20843;-77
2023/03/08 04:06:21;;;;;;;8.63;7.83;;;;;;;0.33;98.03;98971.59;5074174;28;20273;-77
2023/03/08 04:08:48;;;;;;;10.20;7.20;;;;;;;0.12;98.33;98982.75;5073646;28;20206;-77
2023/03/08 04:11:17;;;;;;;8.43;7.63;;;;;;;0.04;98.83;98975.91;5073379;28;20205;-77
2023/03/08 04:13:44;;;;;;;8.83;8.03;;;;;;;-0.16;98.93;98975.91;5073054;28;20230;-77
2023/03/08 04:16:11;;;;;;;8.80;7.83;;;;;;;-0.30;98.97;98966.50;5073315;28;20271;-76
2023/03/08 04:18:37;;;;;;;8.40;7.60;;;;;;;-0.34;99.63;98948.53;5074002;28;20206;-77
2023/03/08 04:21:04;;;;;;;8.20;7.40;;;;;;;-0.41;99.81;98940.84;5074153;28;20204;-77
2023/03/08 04:23:32;;;;;;;8.27;7.47;;;;;;;-0.55;100.00;98939.16;5073503;28;20634;-76
2023/03/08 04:25:59;;;;;;;9.67;7.57;;;;;;;-0.43;100.00;98916.94;5073197;28;20210;-76
2023/03/08 04:28:25;;;;;;;8.10;7.13;;;;;;;-0.37;100.00;98897.28;5072979;28;20253;-77
2023/03/08 04:30:52;;;;;;;7.70;7.00;;;;;;;-0.27;100.00;98893.88;5073564;28;20351;-76
2023/03/08 04:33:18;;;;;;;8.03;7.20;;;;;;;-0.18;100.00;98875.91;5073553;28;20669;-77
2023/03/08 04:35:45;;;;;;;8.57;7.13;;;;;;;-0.11;100.00;98881.88;5073441;28;20206;-77
2023/03/08 04:38:12;;;;;;;7.87;7.07;;;;;;;-0.11;100.00;98887.03;5073189;28;20623;-77
2023/03/08 04:43:20;;;;;;;6.87;6.17;;;;;;;-0.19;98.54;98933.19;5073006;28;20686;-76
2023/03/08 04:45:46;;;;;;;6.97;6.27;;;;;;;-0.07;98.85;98940.03;5072937;28;20200;-76
2023/03/08 04:48:12;;;;;;;6.77;6.17;;;;;;;-0.33;97.32;98965.66;5072908;28;20259;-76
2023/03/08 04:50:39;;;;;;;7.13;5.73;;;;;;;-0.35;96.52;98993.84;5072616;28;20232;-75
2023/03/08 04:53:07;;;;;;;6.30;5.67;;;;;;;-0.27;98.17;98968.22;5072788;28;20214;-76
2023/03/08 04:55:33;;;;;;;6.53;5.93;;;;;;;-0.25;98.04;98969.91;5072701;28;20607;-76
2023/03/08 04:58:01;;;;;;;7.37;5.27;;;;;;;-0.21;97.83;98963.94;5090986;28;20669;-76
2023/03/08 05:00:27;;;;;;;5.97;5.37;;;;;;;-0.08;98.38;98951.13;5092667;28;20221;-76
2023/03/08 05:02:53;;;;;;;6.57;5.97;;;;;;;-0.03;97.85;98957.97;5092768;28;20207;-76
2023/03/08 05:05:20;;;;;;;6.07;5.57;;;;;;;-0.07;97.45;98981.06;5092586;28;20221;-76
2023/03/08 05:07:46;;;;;;;6.83;5.90;;;;;;;-0.06;97.83;98980.19;5093177;28;20230;-77
2023/03/08 05:10:13;;;;;;;6.23;5.67;;;;;;;-0.03;97.71;98973.34;5092635;28;20269;-76
2023/03/08 05:12:39;;;;;;;5.93;5.43;;;;;;;-0.02;98.56;98959.69;5092800;28;20455;-76
2023/03/08 05:15:08;;;;;;;6.23;5.63;;;;;;;-0.09;98.08;98957.97;5092696;28;20208;-76
2023/03/08 05:17:34;;;;;;;5.77;5.27;;;;;;;-0.09;97.93;98957.13;5092726;28;20205;-76
2023/03/08 05:20:01;;;;;;;5.27;4.47;;;;;;;-0.25;97.85;98969.91;5092254;28;20227;-76
2023/03/08 05:22:27;;;;;;;6.27;5.67;;;;;;;-0.25;98.71;98962.22;5092501;28;20304;-77
2023/03/08 05:24:54;;;;;;;5.70;4.73;;;;;;;-0.14;98.44;98953.69;5092529;28;20202;-76
2023/03/08 05:27:20;;;;;;;7.87;4.80;;;;;;;-0.22;98.11;98958.81;5079239;28;20201;-76
2023/03/08 05:29:47;;;;;;;7.00;4.93;;;;;;;-0.15;97.92;98952.00;5086527;28;20233;-76
2023/03/08 05:32:15;;;;;;;5.50;5.00;;;;;;;-0.15;98.36;98954.56;5091789;28;20209;-76
2023/03/08 05:34:42;;;;;;;5.23;4.73;;;;;;;-0.12;98.19;98945.16;5091826;28;20257;-76
2023/03/08 05:37:08;;;;;;;4.80;4.30;;;;;;;-0.13;97.82;98940.03;5091669;28;20234;-76
2023/03/08 05:39:35;;;;;;;5.83;5.33;;;;;;;-0.08;97.68;98934.03;5092408;28;20230;-76
2023/03/08 05:42:01;;;;;;;4.83;4.37;;;;;;;-0.05;97.54;98938.31;5095492;28;20621;-76
2023/03/08 05:44:28;;;;;;;5.40;4.90;;;;;;;-0.02;97.47;98939.16;5095473;28;20204;-76
2023/03/08 05:46:55;;;;;;;5.00;4.50;;;;;;;-0.06;97.93;98937.47;5095279;28;20205;-76
2023/03/08 05:49:22;;;;;;;4.90;4.50;;;;;;;-0.02;97.18;98936.59;5094755;28;20232;-75
2023/03/08 05:51:49;;;;;;;5.77;5.20;;;;;;;0.05;96.84;98945.13;5095449;28;20261;-76
2023/03/08 05:54:15;;;;;;;5.33;4.83;;;;;;;-0.10;96.31;98965.66;5095163;28;20211;-76
2023/03/08 05:56:42;;;;;;;5.00;4.57;;;;;;;-0.08;96.85;98971.63;5088176;28;20202;-76
2023/03/08 05:59:08;;;;;;;5.97;5.43;;;;;;;-0.04;96.16;98988.72;5059080;22;20279;-78
2023/03/08 06:01:34;;;;;;;6.20;5.67;;;;;;;0.05;95.93;98987.91;5026099;28;20260;-80
2023/03/08 06:04:01;;;;;;;6.07;5.47;;;;;;;0.12;95.90;98989.59;5017357;28;20211;-78
2023/03/08 06:06:28;;;;;;;8.70;5.93;;;;;;;0.12;95.86;98993.03;5017733;28;20208;-79
2023/03/08 06:08:55;;;;;;;5.90;5.30;;;;;;;0.05;95.77;99009.25;5018192;28;20224;-79
2023/03/08 06:11:22;;;;;;;6.83;5.20;;;;;;;0.04;96.04;99001.56;5017738;28;20375;-79
2023/03/08 06:13:48;;;;;;;5.87;4.90;;;;;;;0.08;97.32;98998.13;5018695;28;20231;-79
2023/03/08 06:16:15;;;;;;;5.60;5.10;;;;;;;0.07;97.00;98979.34;5018062;28;20204;-79
2023/03/08 06:18:42;;;;;;;5.87;5.23;;;;;;;0.13;97.80;98971.63;5018136;28;20228;-80
2023/03/08 06:21:12;;;;;;;6.03;5.43;;;;;;;0.17;97.80;98957.09;5017965;28;20210;-79
2023/03/08 06:23:40;;;;;;;6.97;6.27;;;;;;;0.15;98.07;98964.78;5018519;28;20230;-80
2023/03/08 06:26:08;;;;;;;6.57;5.97;;;;;;;0.17;97.41;98964.78;5018189;28;20209;-79
2023/03/08 06:28:35;;;;;;;6.40;5.80;;;;;;;0.21;98.03;98953.66;5037764;28;20640;-79
2023/03/08 06:31:02;;;;;;;7.67;6.97;;;;;;;0.15;98.17;98948.56;5037073;28;20232;-79
2023/03/08 06:33:30;;;;;;;11.30;8.17;;;;;;;-0.19;96.76;98952.84;5036415;28;20198;-82
2023/03/08 06:35:58;;;;;;;8.63;7.73;;;;;;;-0.21;95.99;98963.94;5034639;28;20206;-83
2023/03/08 06:38:24;;;;;;;8.53;7.67;;;;;;;-0.04;97.50;98953.69;5035083;28;20222;-83
2023/03/08 06:40:52;;;;;;;9.77;8.87;;;;;;;-0.24;97.14;98940.88;5035473;28;20276;-79
2023/03/08 06:43:19;;;;;;;10.13;9.07;;;;;;;-0.05;96.79;98953.69;5035359;28;20210;-80
2023/03/08 06:45:46;;;;;;;11.70;9.60;;;;;;;0.00;96.80;98949.44;5035021;28;20203;-80
2023/03/08 06:48:13;;;;;;;10.00;9.07;;;;;;;0.00;95.17;98987.91;5036192;28;20285;-79
2023/03/08 06:50:39;;;;;;;10.63;9.53;;;;;;;-0.10;92.59;99025.50;5034911;28;20300;-81
2023/03/08 06:53:06;;;;;;;11.03;10.03;;;;;;;-0.13;92.63;99050.28;5033884;28;20206;-81
2023/03/08 06:55:34;;;;;;;10.87;9.53;;;;;;;0.08;92.98;99047.75;5034937;28;20367;-80
2023/03/08 06:58:02;;;;;;;9.93;8.93;;;;;;;0.22;93.62;99039.19;5035425;28;20276;-81
2023/03/08 07:00:28;;;;;;;12.03;10.10;;;;;;;0.36;93.07;99051.19;5055024;28;20649;-81
2023/03/08 07:02:55;;;;;;;11.17;9.53;;;;;;;0.52;92.69;99048.63;5055189;28;20205;-81
2023/03/08 07:05:22;;;;;;;11.57;10.30;;;;;;;0.48;91.45;99075.16;5054152;28;20267;-80
2023/03/08 07:07:48;;;;;;;10.27;9.27;;;;;;;0.53;90.52;99110.19;5054336;28;20211;-82
2023/03/08 07:10:18;;;;;;;11.20;10.10;;;;;;;0.63;91.20;99108.50;5033804;28;20220;-81
2023/03/08 07:12:47;;;;;;;10.93;9.83;;;;;;;0.69;91.59;99095.66;5032847;28;20231;-79
2023/03/08 07:15:17;;;;;;;11.27;10.07;;;;;;;0.82;92.77;99083.66;5036763;28;20199;-78
2023/03/08 07:17:45;;;;;;;11.10;10.00;;;;;;;0.90;92.41;99063.94;5034500;28;20202;-78
2023/03/08 07:20:13;;;;;;;11.43;10.33;;;;;;;0.97;92.74;99059.63;5037501;28;20206;-80
2023/03/08 07:22:40;;;;;;;10.50;9.30;;;;;;;0.96;92.61;99047.66;5037611;28;20305;-78
2023/03/08 07:25:08;;;;;;;11.27;9.87;;;;;;;1.04;93.06;99043.38;5038437;28;20217;-84
2023/03/08 07:27:34;;;;;;;10.17;9.03;;;;;;;1.07;93.34;99042.50;5041600;28;20688;-81
2023/03/08 07:30:00;;;;;;;10.13;9.00;;;;;;;1.09;93.37;99028.78;5056332;28;20673;-82
2023/03/08 07:32:28;;;;;;;10.23;9.23;;;;;;;1.13;94.60;98996.22;5057249;28;20228;-80
2023/03/08 07:34:54;;;;;;;9.90;8.53;;;;;;;1.14;94.20;98988.50;5057299;28;20202;-78
2023/03/08 07:37:21;;;;;;;9.13;8.23;;;;;;;1.21;95.49;98979.06;5055856;28;20259;-80
2023/03/08 07:39:47;;;;;;;10.13;9.07;;;;;;;1.22;95.29;98949.06;5057350;28;20280;-80
2023/03/08 07:42:14;;;;;;;9.83;8.83;;;;;;;1.25;95.80;98937.06;5058002;28;20263;-79
2023/03/08 07:44:40;;;;;;;11.33;10.13;;;;;;;1.34;96.21;98926.72;5056092;28;20758;-80
2023/03/08 07:47:07;;;;;;;9.67;8.73;;;;;;;1.34;95.57;98920.72;5054671;28;20232;-80
2023/03/08 07:49:35;;;;;;;11.57;10.47;;;;;;;1.44;95.27;98918.94;5054871;28;20721;-82
2023/03/08 07:52:01;;;;;;;10.83;9.80;;;;;;;1.50;93.90;98948.03;5055861;28;20272;-79
2023/03/08 07:54:28;;;;;;;10.90;9.80;;;;;;;1.55;93.25;98976.31;5055450;28;20738;-80
2023/03/08 07:56:55;;;;;;;10.97;9.87;;;;;;;1.52;92.68;99000.31;5048579;28;20258;-79
2023/03/08 07:59:22;;;;;;;11.10;9.97;;;;;;;1.56;92.15;99006.28;5054061;28;20229;-82
2023/03/08 08:01:48;;;;;;;10.73;9.63;;;;;;;1.56;91.92;99025.13;5054238;28;20203;-80
2023/03/08 08:04:15;;;;;;;11.53;10.23;;;;;;;1.48;92.26;99026.06;5053932;28;20203;-80
2023/03/08 08:06:43;;;;;;;11.27;9.87;;;;;;;1.48;90.78;99039.75;5054016;28;20209;-80
2023/03/08 08:09:13;;;;;;;10.07;9.17;;;;;;;1.56;90.54;99050.00;5054010;28;20221;-81
2023/03/08 08:11:39;;;;;;;10.83;9.73;;;;;;;1.61;90.82;99057.72;5054561;28;20269;-81
2023/03/08 08:14:05;;;;;;;11.53;10.30;;;;;;;1.72;89.68;99073.94;5054111;28;20206;-82
2023/03/08 08:16:32;;;;;;;10.87;9.83;;;;;;;1.77;89.05;99082.50;5055123;28;20206;-83
2023/03/08 08:18:58;;;;;;;11.33;10.30;;;;;;;1.78;88.90;99095.34;5054433;28;20224;-81
2023/03/08 08:21:25;;;;;;;10.57;9.57;;;;;;;1.81;88.70;99102.19;5054603;28;20224;-80
2023/03/08 08:23:56;;;;;;;10.50;9.50;;;;;;;1.81;88.34;99121.94;5054924;28;20793;-85
2023/03/08 08:26:23;;;;;;;11.27;10.00;;;;;;;1.81;89.29;99120.19;5050760;28;20252;-83
2023/03/08 08:28:52;;;;;;;13.13;11.93;;;;;;;1.87;90.18;99091.84;5048468;28;20427;-81
2023/03/08 08:31:21;;;;;;;12.53;11.33;;;;;;;1.91;90.24;99083.25;5053500;28;20286;-81
2023/03/08 08:33:48;;;;;;;10.70;9.70;;;;;;;1.76;88.05;99091.94;5054368;28;20260;-81
2023/03/08 08:36:16;;;;;;;11.83;10.73;;;;;;;1.67;86.56;99134.84;5055190;28;20210;-80
2023/03/08 08:38:44;;;;;;;11.50;10.40;;;;;;;1.60;86.46;99157.13;5054425;28;20723;-81
2023/03/08 08:41:15;;;;;;;13.93;11.73;;;;;;;1.72;86.90;99161.38;5054654;28;20213;-80
2023/03/08 08:43:42;;;;;;;13.90;12.50;;;;;;;1.81;87.16;99153.63;5054722;28;20208;-80
2023/03/08 08:46:09;;;;;;;13.33;11.63;;;;;;;1.97;87.60;99137.25;5054437;28;20271;-78
2023/03/08 08:48:37;;;;;;;12.33;11.13;;;;;;;2.06;87.15;99138.06;5054776;28;20229;-79
2023/03/08 08:51:04;;;;;;;13.50;12.10;;;;;;;2.17;87.28;99142.28;5054940;28;20230;-81
2023/03/08 08:53:30;;;;;;;13.30;11.67;;;;;;;2.25;86.80;99149.97;5055887;28;20202;-80
2023/03/08 08:55:57;;;;;;;12.30;11.20;;;;;;;2.35;86.61;99146.47;5054379;28;20206;-80
2023/03/08 08:58:25;;;;;;;13.50;11.43;;;;;;;2.36;86.23;99158.50;5004685;28;977638;-80
2023/03/08 09:00:51;;;;;;;12.90;11.60;;;;;;;2.40;86.20;99167.06;5055715;28;20205;-80
2023/03/08 09:03:18;;;;;;;12.83;11.67;;;;;;;2.44;86.23;99166.19;5055270;28;20221;-79
2023/03/08 09:05:44;;;;;;;11.57;10.43;;;;;;;2.47;85.78;99160.97;5055538;28;20210;-79
2023/03/08 09:08:11;;;;;;;12.53;10.70;;;;;;;2.48;85.02;99173.00;5055451;28;20226;-80
2023/03/08 09:10:40;;;;;;;11.93;10.83;;;;;;;2.47;84.76;99173.88;5055639;28;20209;-81
2023/03/08 09:13:07;;;;;;;13.40;12.10;;;;;;;2.45;85.14;99188.47;5054935;28;20202;-80
2023/03/08 09:15:34;;;;;;;12.90;11.50;;;;;;;2.48;85.34;99174.72;5056957;28;20288;-81
2023/03/08 09:18:01;;;;;;;13.27;11.97;;;;;;;2.53;85.26;99157.50;5058947;28;20231;-81
2023/03/08 09:20:27;;;;;;;13.03;11.77;;;;;;;2.53;85.34;99150.63;5058754;28;20255;-81
2023/03/08 09:22:54;;;;;;;11.60;10.53;;;;;;;2.52;85.17;99153.25;5059817;28;20266;-81
2023/03/08 09:25:22;;;;;;;13.10;11.90;;;;;;;2.54;85.59;99144.63;5059603;28;20203;-81
2023/03/08 09:27:50;;;;;;;13.47;12.00;;;;;;;2.53;86.04;99129.19;5052495;28;20205;-81
2023/03/08 09:30:17;;;;;;;13.90;12.57;;;;;;;2.48;83.77;99165.28;5060158;28;20211;-78
2023/03/08 09:32:45;;;;;;;11.87;10.87;;;;;;;2.59;84.20;99157.47;5058849;28;20645;-79
2023/03/08 09:35:11;;;;;;;13.57;12.27;;;;;;;2.66;84.09;99163.44;5059032;28;20209;-81
2023/03/08 09:37:37;;;;;;;13.30;11.33;;;;;;;2.75;83.67;99164.19;5058939;28;20207;-77
2023/03/08 09:40:08;;;;;;;11.43;10.43;;;;;;;2.80;83.90;99168.50;5058210;28;20226;-82
2023/03/08 09:42:36;;;;;;;12.40;11.23;;;;;;;2.89;83.39;99166.66;5057499;28;20232;-80
2023/03/08 09:45:19;;;;;;;12.23;11.13;;;;;;;2.83;84.41;99150.41;5056878;28;20690;-79
2023/03/08 09:47:51;;;;;;;12.10;10.83;;;;;;;2.92;84.91;99124.56;5058412;28;20598;-82
2023/03/08 09:50:27;;;;;;;11.73;10.60;;;;;;;2.95;84.60;99111.66;5059467;28;20241;-80
2023/03/08 09:52:59;;;;;;;12.20;11.10;;;;;;;2.92;85.06;99106.53;5058886;28;20584;-81
2023/03/08 09:55:29;;;;;;;12.60;11.50;;;;;;;3.02;85.42;99084.09;5058564;28;20766;-80
2023/03/08 09:57:59;;;;;;;12.37;11.17;;;;;;;3.13;85.46;99075.38;5050738;28;20226;-81
2023/03/08 10:00:29;;;;;;;13.73;11.40;;;;;;;3.21;85.13;99072.72;5059114;28;20579;-81
2023/03/08 10:03:09;;;;;;;12.20;11.10;;;;;;;3.17;83.87;99089.94;5058457;28;20206;-80
2023/03/08 10:05:40;;;;;;;13.60;11.57;;;;;;;3.20;84.00;99096.78;5059023;28;20210;-80
2023/03/08 10:08:13;;;;;;;12.50;11.40;;;;;;;3.10;84.13;99095.19;5059327;28;20620;-81
2023/03/08 10:10:47;;;;;;;12.13;11.03;;;;;;;3.10;84.24;99087.44;5059380;28;20232;-81
2023/03/08 10:13:30;;;;;;;12.03;10.83;;;;;;;3.17;84.31;99087.38;5058661;28;20201;-81
2023/03/08 10:16:05;;;;;;;13.33;11.97;;;;;;;3.13;84.49;99074.50;5057888;28;20241;-80
2023/03/08 10:18:37;;;;;;;11.97;10.87;;;;;;;3.23;84.12;99062.38;5058211;28;20227;-81
2023/03/08 10:21:06;;;;;;;12.27;11.13;;;;;;;3.21;83.99;99067.56;5058981;28;20206;-81
2023/03/08 10:23:33;;;;;;;11.73;10.63;;;;;;;3.25;83.89;99069.25;5058437;28;20299;-81
2023/03/08 10:26:00;;;;;;;12.23;11.13;;;;;;;3.20;83.85;99075.31;5057030;28;20208;-81
2023/03/08 10:28:27;;;;;;;11.47;10.37;;;;;;;3.18;84.72;99050.38;5049925;28;20773;-80
2023/03/08 10:30:57;;;;;;;12.87;11.57;;;;;;;3.16;84.57;99044.41;5057898;28;20216;-81
2023/03/08 10:33:24;;;;;;;11.40;10.40;;;;;;;3.10;85.11;99031.59;5057845;28;20210;-81
2023/03/08 10:35:58;;;;;;;11.37;10.30;;;;;;;3.19;85.56;99015.13;5059305;28;20202;-79
2023/03/08 10:38:27;;;;;;;10.73;9.83;;;;;;;3.26;85.61;99003.03;5059084;28;20221;-80
2023/03/08 10:41:02;;;;;;;10.63;9.50;;;;;;;3.31;86.04;98980.59;5047023;28;20203;-81
2023/03/08 10:43:34;;;;;;;11.10;9.97;;;;;;;3.30;85.00;98999.56;5044234;28;20250;-80
2023/03/08 10:46:03;;;;;;;10.30;9.40;;;;;;;3.36;85.03;99002.06;5057900;28;20214;-81
2023/03/08 10:48:30;;;;;;;9.67;8.77;;;;;;;3.41;85.30;98992.53;5057522;28;20233;-81
2023/03/08 10:51:04;;;;;;;9.57;8.70;;;;;;;3.47;84.77;98991.56;5057287;28;20206;-80
2023/03/08 10:53:31;;;;;;;10.90;9.80;;;;;;;3.54;85.13;98988.06;5057525;28;20213;-82
2023/03/08 10:56:00;;;;;;;9.23;8.33;;;;;;;3.64;83.85;98987.03;5056597;28;20575;-81
2023/03/08 10:58:30;;;;;;;10.43;9.53;;;;;;;3.67;83.94;99014.56;5050552;28;20234;-81
2023/03/08 11:00:59;;;;;;;8.97;8.17;;;;;;;3.71;84.24;99008.47;5056669;28;20202;-80
2023/03/08 11:03:26;;;;;;;9.07;8.27;;;;;;;3.68;83.79;99013.66;5056667;28;20243;-80
2023/03/08 11:05:55;;;;;;;9.43;8.63;;;;;;;3.70;83.68;99010.16;5056728;28;20198;-78
2023/03/08 11:08:27;;;;;;;10.00;9.10;;;;;;;3.73;83.49;99020.47;5051610;28;20218;-81
2023/03/08 11:11:04;;;;;;;10.37;9.40;;;;;;;3.61;82.98;99033.53;5057205;28;20240;-80
2023/03/08 11:13:32;;;;;;;9.33;8.53;;;;;;;3.66;83.68;99030.88;5041622;28;20228;-81
2023/03/08 11:16:21;;;;;;;8.40;7.70;;;;;;;3.48;81.19;99047.47;5056191;28;20207;-82
2023/03/08 11:18:57;;;;;;;8.67;7.87;;;;;;;3.65;83.01;99063.59;5039774;28;20297;-80
2023/03/08 11:21:32;;;;;;;8.40;7.60;;;;;;;3.77;83.70;99034.19;5050308;28;20206;-81
2023/03/08 11:24:12;;;;;;;8.43;7.63;;;;;;;3.92;83.70;99009.88;5045786;28;20202;-81
2023/03/08 11:26:44;;;;;;;5.47;4.97;;;;;;;3.67;78.89;99082.47;5041740;28;20574;-81
2023/03/08 11:29:21;;;;;;;6.90;5.23;;;;;;;3.82;81.81;99084.00;5042555;28;20242;-81
2023/03/08 11:31:55;;;;;;;5.70;5.20;;;;;;;3.98;82.22;99071.72;5040431;28;20248;-81
2023/03/08 11:34:53;;;;;;;3.60;3.30;;;;;;;4.04;80.62;99071.63;5036943;28;20238;-82
2023/03/08 11:37:30;;;;;;;2.50;2.30;;;;;;;4.03;76.65;99169.78;5042408;28;20203;-82
2023/03/08 11:40:04;;;;;;;2.60;2.40;;;;;;;3.97;76.81;99209.44;5035725;28;20234;-83